sensor_id;sensor_type;location;lat;lon;timestamp;P1;durP1;ratioP1;P2;durP2;ratioP2
64982;SDS011;73964;54.688;25.256;2023-12-28T00:00:12;4.43;;;1.70;;
64982;SDS011;73964;54.688;25.256;2023-12-28T00:02:37;5.75;;;2.30;;
64982;SDS011;73964;54.688;25.256;2023-12-28T00:05:02;4.00;;;1.80;;
64982;SDS011;73964;54.688;25.256;2023-12-28T00:07:28;4.97;;;1.90;;
64982;SDS011;73964;54.688;25.256;2023-12-28T00:09:54;5.80;;;1.70;;
64982;SDS011;73964;54.688;25.256;2023-12-28T00:12:19;6.17;;;1.77;;
64982;SDS011;73964;54.688;25.256;2023-12-28T00:14:44;3.90;;;1.38;;
64982;SDS011;73964;54.688;25.256;2023-12-28T00:17:09;3.83;;;1.30;;
64982;SDS011;73964;54.688;25.256;2023-12-28T00:19:35;2.58;;;1.15;;
64982;SDS011;73964;54.688;25.256;2023-12-28T00:22:00;3.13;;;1.27;;
64982;SDS011;73964;54.688;25.256;2023-12-28T00:24:25;2.13;;;1.10;;
64982;SDS011;73964;54.688;25.256;2023-12-28T00:26:50;1.80;;;0.87;;
64982;SDS011;73964;54.688;25.256;2023-12-28T00:29:16;1.70;;;0.80;;
64982;SDS011;73964;54.688;25.256;2023-12-28T00:31:41;1.77;;;0.90;;
64982;SDS011;73964;54.688;25.256;2023-12-28T00:34:06;2.10;;;0.80;;
64982;SDS011;73964;54.688;25.256;2023-12-28T00:36:31;1.77;;;0.90;;
64982;SDS011;73964;54.688;25.256;2023-12-28T00:38:57;1.67;;;0.80;;
64982;SDS011;73964;54.688;25.256;2023-12-28T00:41:22;1.40;;;0.60;;
64982;SDS011;73964;54.688;25.256;2023-12-28T00:43:50;1.20;;;0.50;;
64982;SDS011;73964;54.688;25.256;2023-12-28T00:46:16;1.95;;;0.60;;
64982;SDS011;73964;54.688;25.256;2023-12-28T00:48:41;0.90;;;0.43;;
64982;SDS011;73964;54.688;25.256;2023-12-28T00:51:06;0.60;;;0.40;;
64982;SDS011;73964;54.688;25.256;2023-12-28T00:53:32;2.88;;;0.98;;
64982;SDS011;73964;54.688;25.256;2023-12-28T00:55:57;2.37;;;1.00;;
64982;SDS011;73964;54.688;25.256;2023-12-28T00:58:22;2.97;;;0.93;;
64982;SDS011;73964;54.688;25.256;2023-12-28T01:00:47;2.40;;;0.90;;
64982;SDS011;73964;54.688;25.256;2023-12-28T01:03:13;1.73;;;0.88;;
64982;SDS011;73964;54.688;25.256;2023-12-28T01:05:38;2.83;;;0.70;;
64982;SDS011;73964;54.688;25.256;2023-12-28T01:08:03;2.10;;;0.70;;
64982;SDS011;73964;54.688;25.256;2023-12-28T01:10:29;2.25;;;0.70;;
64982;SDS011;73964;54.688;25.256;2023-12-28T01:12:54;1.17;;;0.57;;
64982;SDS011;73964;54.688;25.256;2023-12-28T01:15:19;1.63;;;0.50;;
64982;SDS011;73964;54.688;25.256;2023-12-28T01:17:45;1.00;;;0.60;;
64982;SDS011;73964;54.688;25.256;2023-12-28T01:20:11;1.60;;;0.70;;
64982;SDS011;73964;54.688;25.256;2023-12-28T01:22:36;1.67;;;0.57;;
64982;SDS011;73964;54.688;25.256;2023-12-28T01:25:01;1.70;;;0.60;;
64982;SDS011;73964;54.688;25.256;2023-12-28T01:27:26;1.50;;;0.60;;
64982;SDS011;73964;54.688;25.256;2023-12-28T01:29:51;1.97;;;0.40;;
64982;SDS011;73964;54.688;25.256;2023-12-28T01:32:17;0.77;;;0.40;;
64982;SDS011;73964;54.688;25.256;2023-12-28T01:34:42;0.77;;;0.37;;
64982;SDS011;73964;54.688;25.256;2023-12-28T01:37:08;1.58;;;0.60;;
64982;SDS011;73964;54.688;25.256;2023-12-28T01:39:33;0.95;;;0.40;;
64982;SDS011;73964;54.688;25.256;2023-12-28T01:41:58;1.20;;;0.50;;
64982;SDS011;73964;54.688;25.256;2023-12-28T01:44:24;0.70;;;0.40;;
64982;SDS011;73964;54.688;25.256;2023-12-28T01:46:49;1.25;;;0.40;;
64982;SDS011;73964;54.688;25.256;2023-12-28T01:49:14;0.90;;;0.50;;
64982;SDS011;73964;54.688;25.256;2023-12-28T01:51:40;0.85;;;0.30;;
64982;SDS011;73964;54.688;25.256;2023-12-28T01:54:05;0.80;;;0.40;;
64982;SDS011;73964;54.688;25.256;2023-12-28T01:56:30;1.15;;;0.40;;
64982;SDS011;73964;54.688;25.256;2023-12-28T01:58:55;0.63;;;0.40;;
64982;SDS011;73964;54.688;25.256;2023-12-28T02:01:21;0.70;;;0.40;;
64982;SDS011;73964;54.688;25.256;2023-12-28T02:03:46;0.95;;;0.40;;
64982;SDS011;73964;54.688;25.256;2023-12-28T02:06:12;1.48;;;0.40;;
64982;SDS011;73964;54.688;25.256;2023-12-28T02:08:38;0.80;;;0.40;;
64982;SDS011;73964;54.688;25.256;2023-12-28T02:11:03;0.67;;;0.33;;
64982;SDS011;73964;54.688;25.256;2023-12-28T02:13:29;1.08;;;0.43;;
64982;SDS011;73964;54.688;25.256;2023-12-28T02:15:54;0.88;;;0.40;;
64982;SDS011;73964;54.688;25.256;2023-12-28T02:18:21;1.70;;;0.40;;
64982;SDS011;73964;54.688;25.256;2023-12-28T02:20:48;0.98;;;0.43;;
64982;SDS011;73964;54.688;25.256;2023-12-28T02:23:15;2.38;;;0.40;;
64982;SDS011;73964;54.688;25.256;2023-12-28T02:25:40;1.48;;;0.40;;
64982;SDS011;73964;54.688;25.256;2023-12-28T02:28:05;1.00;;;0.30;;
64982;SDS011;73964;54.688;25.256;2023-12-28T02:30:31;0.77;;;0.30;;
64982;SDS011;73964;54.688;25.256;2023-12-28T02:37:58;0.50;;;0.30;;
64982;SDS011;73964;54.688;25.256;2023-12-28T02:40:23;0.80;;;0.40;;
64982;SDS011;73964;54.688;25.256;2023-12-28T02:42:49;0.73;;;0.40;;
64982;SDS011;73964;54.688;25.256;2023-12-28T02:45:14;1.17;;;0.50;;
64982;SDS011;73964;54.688;25.256;2023-12-28T02:47:39;0.57;;;0.40;;
64982;SDS011;73964;54.688;25.256;2023-12-28T02:50:05;1.70;;;0.40;;
64982;SDS011;73964;54.688;25.256;2023-12-28T02:52:30;0.65;;;0.32;;
64982;SDS011;73964;54.688;25.256;2023-12-28T02:54:56;1.60;;;0.40;;
64982;SDS011;73964;54.688;25.256;2023-12-28T02:57:21;0.77;;;0.40;;
64982;SDS011;73964;54.688;25.256;2023-12-28T02:59:47;1.23;;;0.50;;
64982;SDS011;73964;54.688;25.256;2023-12-28T03:02:12;0.95;;;0.47;;
64982;SDS011;73964;54.688;25.256;2023-12-28T03:04:37;0.98;;;0.40;;
64982;SDS011;73964;54.688;25.256;2023-12-28T03:07:04;1.10;;;0.50;;
64982;SDS011;73964;54.688;25.256;2023-12-28T03:09:29;0.60;;;0.40;;
64982;SDS011;73964;54.688;25.256;2023-12-28T03:11:54;0.93;;;0.50;;
64982;SDS011;73964;54.688;25.256;2023-12-28T03:14:19;0.97;;;0.40;;
64982;SDS011;73964;54.688;25.256;2023-12-28T03:16:46;1.73;;;0.40;;
64982;SDS011;73964;54.688;25.256;2023-12-28T03:19:11;1.10;;;0.30;;
64982;SDS011;73964;54.688;25.256;2023-12-28T03:21:40;1.40;;;0.50;;
64982;SDS011;73964;54.688;25.256;2023-12-28T03:24:05;1.75;;;0.40;;
64982;SDS011;73964;54.688;25.256;2023-12-28T03:26:30;0.43;;;0.30;;
64982;SDS011;73964;54.688;25.256;2023-12-28T03:28:56;2.55;;;0.50;;
64982;SDS011;73964;54.688;25.256;2023-12-28T03:31:21;0.97;;;0.40;;
64982;SDS011;73964;54.688;25.256;2023-12-28T03:33:46;2.50;;;0.60;;
64982;SDS011;73964;54.688;25.256;2023-12-28T03:36:18;1.03;;;0.50;;
64982;SDS011;73964;54.688;25.256;2023-12-28T03:38:43;1.38;;;0.57;;
64982;SDS011;73964;54.688;25.256;2023-12-28T03:41:16;1.13;;;0.43;;
64982;SDS011;73964;54.688;25.256;2023-12-28T03:43:41;2.25;;;0.50;;
64982;SDS011;73964;54.688;25.256;2023-12-28T03:46:06;1.40;;;0.50;;
64982;SDS011;73964;54.688;25.256;2023-12-28T03:48:31;1.23;;;0.43;;
64982;SDS011;73964;54.688;25.256;2023-12-28T03:50:56;1.70;;;0.50;;
64982;SDS011;73964;54.688;25.256;2023-12-28T03:53:22;1.53;;;0.60;;
64982;SDS011;73964;54.688;25.256;2023-12-28T03:55:47;0.77;;;0.37;;
64982;SDS011;73964;54.688;25.256;2023-12-28T03:58:12;1.03;;;0.40;;
64982;SDS011;73964;54.688;25.256;2023-12-28T04:00:37;0.77;;;0.50;;
64982;SDS011;73964;54.688;25.256;2023-12-28T04:03:03;0.90;;;0.40;;
64982;SDS011;73964;54.688;25.256;2023-12-28T04:05:28;0.88;;;0.50;;
64982;SDS011;73964;54.688;25.256;2023-12-28T04:07:53;0.90;;;0.40;;
64982;SDS011;73964;54.688;25.256;2023-12-28T04:10:28;1.40;;;0.57;;
64982;SDS011;73964;54.688;25.256;2023-12-28T04:12:53;1.38;;;0.50;;
64982;SDS011;73964;54.688;25.256;2023-12-28T04:15:22;0.80;;;0.50;;
64982;SDS011;73964;54.688;25.256;2023-12-28T04:17:47;1.67;;;0.50;;
64982;SDS011;73964;54.688;25.256;2023-12-28T04:20:13;1.00;;;0.50;;
64982;SDS011;73964;54.688;25.256;2023-12-28T04:22:38;1.30;;;0.57;;
64982;SDS011;73964;54.688;25.256;2023-12-28T04:25:03;0.57;;;0.40;;
64982;SDS011;73964;54.688;25.256;2023-12-28T04:27:28;0.50;;;0.30;;
64982;SDS011;73964;54.688;25.256;2023-12-28T04:29:54;1.10;;;0.50;;
64982;SDS011;73964;54.688;25.256;2023-12-28T04:32:19;1.27;;;0.50;;
64982;SDS011;73964;54.688;25.256;2023-12-28T04:34:44;1.07;;;0.60;;
64982;SDS011;73964;54.688;25.256;2023-12-28T04:37:09;0.98;;;0.60;;
64982;SDS011;73964;54.688;25.256;2023-12-28T04:39:35;1.63;;;0.60;;
64982;SDS011;73964;54.688;25.256;2023-12-28T04:42:00;1.88;;;0.50;;
64982;SDS011;73964;54.688;25.256;2023-12-28T04:44:25;2.83;;;0.50;;
64982;SDS011;73964;54.688;25.256;2023-12-28T04:46:51;1.23;;;0.60;;
64982;SDS011;73964;54.688;25.256;2023-12-28T04:49:16;1.30;;;0.70;;
64982;SDS011;73964;54.688;25.256;2023-12-28T04:51:44;0.80;;;0.50;;
64982;SDS011;73964;54.688;25.256;2023-12-28T04:54:10;1.15;;;0.50;;
64982;SDS011;73964;54.688;25.256;2023-12-28T04:56:35;0.70;;;0.43;;
64982;SDS011;73964;54.688;25.256;2023-12-28T04:59:00;0.60;;;0.50;;
64982;SDS011;73964;54.688;25.256;2023-12-28T05:01:25;2.00;;;0.70;;
64982;SDS011;73964;54.688;25.256;2023-12-28T05:03:51;1.53;;;0.60;;
64982;SDS011;73964;54.688;25.256;2023-12-28T05:06:16;2.37;;;0.60;;
64982;SDS011;73964;54.688;25.256;2023-12-28T05:08:41;1.37;;;0.57;;
64982;SDS011;73964;54.688;25.256;2023-12-28T05:11:06;1.05;;;0.60;;
64982;SDS011;73964;54.688;25.256;2023-12-28T05:13:32;1.33;;;0.60;;
64982;SDS011;73964;54.688;25.256;2023-12-28T05:15:59;2.03;;;0.60;;
64982;SDS011;73964;54.688;25.256;2023-12-28T05:18:24;0.90;;;0.60;;
64982;SDS011;73964;54.688;25.256;2023-12-28T05:20:49;1.63;;;0.70;;
64982;SDS011;73964;54.688;25.256;2023-12-28T05:23:14;1.37;;;0.70;;
64982;SDS011;73964;54.688;25.256;2023-12-28T05:25:40;0.70;;;0.60;;
64982;SDS011;73964;54.688;25.256;2023-12-28T05:28:05;1.27;;;0.60;;
64982;SDS011;73964;54.688;25.256;2023-12-28T05:30:30;1.67;;;0.80;;
64982;SDS011;73964;54.688;25.256;2023-12-28T05:32:55;1.97;;;0.60;;
64982;SDS011;73964;54.688;25.256;2023-12-28T05:35:21;1.43;;;0.73;;
64982;SDS011;73964;54.688;25.256;2023-12-28T05:37:46;1.70;;;0.75;;
64982;SDS011;73964;54.688;25.256;2023-12-28T05:40:11;1.20;;;0.60;;
64982;SDS011;73964;54.688;25.256;2023-12-28T05:42:37;1.02;;;0.52;;
64982;SDS011;73964;54.688;25.256;2023-12-28T05:45:02;2.35;;;0.70;;
64982;SDS011;73964;54.688;25.256;2023-12-28T05:47:27;1.38;;;0.70;;
64982;SDS011;73964;54.688;25.256;2023-12-28T05:49:53;2.13;;;1.03;;
64982;SDS011;73964;54.688;25.256;2023-12-28T05:52:18;2.80;;;0.80;;
64982;SDS011;73964;54.688;25.256;2023-12-28T05:54:44;2.90;;;0.70;;
64982;SDS011;73964;54.688;25.256;2023-12-28T05:57:09;2.47;;;0.70;;
64982;SDS011;73964;54.688;25.256;2023-12-28T05:59:38;1.87;;;0.67;;
64982;SDS011;73964;54.688;25.256;2023-12-28T06:02:04;1.60;;;0.70;;
64982;SDS011;73964;54.688;25.256;2023-12-28T06:04:29;2.92;;;0.88;;
64982;SDS011;73964;54.688;25.256;2023-12-28T06:06:54;1.47;;;0.70;;
64982;SDS011;73964;54.688;25.256;2023-12-28T06:09:19;2.03;;;0.90;;
64982;SDS011;73964;54.688;25.256;2023-12-28T06:11:45;1.60;;;0.70;;
64982;SDS011;73964;54.688;25.256;2023-12-28T06:14:10;1.63;;;0.67;;
64982;SDS011;73964;54.688;25.256;2023-12-28T06:16:35;2.03;;;0.80;;
64982;SDS011;73964;54.688;25.256;2023-12-28T06:19:01;0.90;;;0.60;;
64982;SDS011;73964;54.688;25.256;2023-12-28T06:21:26;2.03;;;0.93;;
64982;SDS011;73964;54.688;25.256;2023-12-28T06:23:51;2.47;;;0.80;;
64982;SDS011;73964;54.688;25.256;2023-12-28T06:26:16;1.67;;;0.80;;
64982;SDS011;73964;54.688;25.256;2023-12-28T06:28:42;2.42;;;0.95;;
64982;SDS011;73964;54.688;25.256;2023-12-28T06:31:07;1.70;;;0.70;;
64982;SDS011;73964;54.688;25.256;2023-12-28T06:33:32;1.90;;;0.73;;
64982;SDS011;73964;54.688;25.256;2023-12-28T06:35:58;1.55;;;0.80;;
64982;SDS011;73964;54.688;25.256;2023-12-28T06:38:23;1.90;;;0.80;;
64982;SDS011;73964;54.688;25.256;2023-12-28T06:40:49;1.63;;;0.73;;
64982;SDS011;73964;54.688;25.256;2023-12-28T06:43:14;1.53;;;0.70;;
64982;SDS011;73964;54.688;25.256;2023-12-28T06:45:40;1.65;;;0.80;;
64982;SDS011;73964;54.688;25.256;2023-12-28T06:48:05;2.60;;;0.90;;
64982;SDS011;73964;54.688;25.256;2023-12-28T06:50:31;3.53;;;0.80;;
64982;SDS011;73964;54.688;25.256;2023-12-28T06:52:56;2.23;;;0.83;;
64982;SDS011;73964;54.688;25.256;2023-12-28T06:55:22;2.72;;;1.15;;
64982;SDS011;73964;54.688;25.256;2023-12-28T06:57:47;4.73;;;0.97;;
64982;SDS011;73964;54.688;25.256;2023-12-28T07:00:13;2.80;;;0.97;;
64982;SDS011;73964;54.688;25.256;2023-12-28T07:02:38;2.40;;;0.80;;
64982;SDS011;73964;54.688;25.256;2023-12-28T07:05:03;3.07;;;1.00;;
64982;SDS011;73964;54.688;25.256;2023-12-28T07:07:29;3.22;;;1.00;;
64982;SDS011;73964;54.688;25.256;2023-12-28T07:09:54;3.13;;;0.93;;
64982;SDS011;73964;54.688;25.256;2023-12-28T07:12:20;2.00;;;0.80;;
64982;SDS011;73964;54.688;25.256;2023-12-28T07:14:45;1.23;;;0.60;;
64982;SDS011;73964;54.688;25.256;2023-12-28T07:17:11;1.88;;;0.70;;
64982;SDS011;73964;54.688;25.256;2023-12-28T07:19:37;0.95;;;0.50;;
64982;SDS011;73964;54.688;25.256;2023-12-28T07:22:02;2.10;;;0.70;;
64982;SDS011;73964;54.688;25.256;2023-12-28T07:24:27;2.27;;;0.60;;
64982;SDS011;73964;54.688;25.256;2023-12-28T07:26:53;1.03;;;0.57;;
64982;SDS011;73964;54.688;25.256;2023-12-28T07:29:20;1.17;;;0.50;;
64982;SDS011;73964;54.688;25.256;2023-12-28T07:31:45;2.20;;;0.50;;
64982;SDS011;73964;54.688;25.256;2023-12-28T07:34:11;1.53;;;0.60;;
64982;SDS011;73964;54.688;25.256;2023-12-28T07:36:37;1.38;;;0.60;;
64982;SDS011;73964;54.688;25.256;2023-12-28T07:39:02;2.55;;;0.60;;
64982;SDS011;73964;54.688;25.256;2023-12-28T07:41:28;2.63;;;0.70;;
64982;SDS011;73964;54.688;25.256;2023-12-28T07:43:53;7.00;;;0.77;;
64982;SDS011;73964;54.688;25.256;2023-12-28T07:46:18;3.03;;;0.70;;
64982;SDS011;73964;54.688;25.256;2023-12-28T07:48:44;2.20;;;0.77;;
64982;SDS011;73964;54.688;25.256;2023-12-28T07:51:09;0.70;;;0.40;;
64982;SDS011;73964;54.688;25.256;2023-12-28T07:53:34;1.07;;;0.33;;
64982;SDS011;73964;54.688;25.256;2023-12-28T07:55:59;0.40;;;0.30;;
64982;SDS011;73964;54.688;25.256;2023-12-28T07:58:25;0.82;;;0.20;;
64982;SDS011;73964;54.688;25.256;2023-12-28T08:00:50;0.80;;;0.20;;
64982;SDS011;73964;54.688;25.256;2023-12-28T08:03:16;2.55;;;0.30;;
64982;SDS011;73964;54.688;25.256;2023-12-28T08:05:42;0.40;;;0.20;;
64982;SDS011;73964;54.688;25.256;2023-12-28T08:08:08;0.90;;;0.40;;
64982;SDS011;73964;54.688;25.256;2023-12-28T08:10:33;0.30;;;0.30;;
64982;SDS011;73964;54.688;25.256;2023-12-28T08:12:58;0.97;;;0.53;;
64982;SDS011;73964;54.688;25.256;2023-12-28T08:15:23;2.30;;;0.70;;
64982;SDS011;73964;54.688;25.256;2023-12-28T08:17:48;1.23;;;0.63;;
64982;SDS011;73964;54.688;25.256;2023-12-28T08:20:14;1.73;;;0.73;;
64982;SDS011;73964;54.688;25.256;2023-12-28T08:22:39;1.30;;;0.70;;
64982;SDS011;73964;54.688;25.256;2023-12-28T08:25:04;1.97;;;0.70;;
64982;SDS011;73964;54.688;25.256;2023-12-28T08:27:30;1.90;;;0.95;;
64982;SDS011;73964;54.688;25.256;2023-12-28T08:29:55;1.80;;;0.80;;
64982;SDS011;73964;54.688;25.256;2023-12-28T08:32:20;1.63;;;0.90;;
64982;SDS011;73964;54.688;25.256;2023-12-28T08:34:45;1.97;;;0.90;;
64982;SDS011;73964;54.688;25.256;2023-12-28T08:37:12;1.65;;;0.88;;
64982;SDS011;73964;54.688;25.256;2023-12-28T08:39:39;2.47;;;1.02;;
64982;SDS011;73964;54.688;25.256;2023-12-28T08:42:04;5.65;;;1.00;;
64982;SDS011;73964;54.688;25.256;2023-12-28T08:44:29;2.53;;;1.17;;
64982;SDS011;73964;54.688;25.256;2023-12-28T08:46:54;1.47;;;0.87;;
64982;SDS011;73964;54.688;25.256;2023-12-28T08:49:20;1.83;;;0.90;;
64982;SDS011;73964;54.688;25.256;2023-12-28T08:51:47;3.08;;;1.17;;
64982;SDS011;73964;54.688;25.256;2023-12-28T08:54:12;1.60;;;0.90;;
64982;SDS011;73964;54.688;25.256;2023-12-28T08:56:37;1.50;;;1.00;;
64982;SDS011;73964;54.688;25.256;2023-12-28T08:59:02;2.30;;;1.00;;
64982;SDS011;73964;54.688;25.256;2023-12-28T09:01:28;1.88;;;0.98;;
64982;SDS011;73964;54.688;25.256;2023-12-28T09:03:54;2.00;;;0.80;;
64982;SDS011;73964;54.688;25.256;2023-12-28T09:06:20;2.65;;;1.00;;
64982;SDS011;73964;54.688;25.256;2023-12-28T09:08:47;2.08;;;0.90;;
64982;SDS011;73964;54.688;25.256;2023-12-28T09:11:13;1.65;;;0.90;;
64982;SDS011;73964;54.688;25.256;2023-12-28T09:13:38;2.17;;;0.93;;
64982;SDS011;73964;54.688;25.256;2023-12-28T09:16:04;1.30;;;0.70;;
64982;SDS011;73964;54.688;25.256;2023-12-28T09:18:30;1.33;;;0.90;;
64982;SDS011;73964;54.688;25.256;2023-12-28T09:20:55;1.97;;;1.00;;
64982;SDS011;73964;54.688;25.256;2023-12-28T09:23:20;1.75;;;0.80;;
64982;SDS011;73964;54.688;25.256;2023-12-28T09:25:45;1.87;;;0.87;;
64982;SDS011;73964;54.688;25.256;2023-12-28T09:28:11;1.53;;;0.83;;
64982;SDS011;73964;54.688;25.256;2023-12-28T09:30:36;1.35;;;0.80;;
64982;SDS011;73964;54.688;25.256;2023-12-28T09:33:02;1.80;;;0.90;;
64982;SDS011;73964;54.688;25.256;2023-12-28T09:35:27;2.80;;;1.00;;
64982;SDS011;73964;54.688;25.256;2023-12-28T09:37:52;1.27;;;0.70;;
64982;SDS011;73964;54.688;25.256;2023-12-28T09:40:19;1.35;;;0.77;;
64982;SDS011;73964;54.688;25.256;2023-12-28T09:42:57;3.25;;;0.90;;
64982;SDS011;73964;54.688;25.256;2023-12-28T09:45:26;1.52;;;0.82;;
64982;SDS011;73964;54.688;25.256;2023-12-28T09:47:51;1.43;;;0.90;;
64982;SDS011;73964;54.688;25.256;2023-12-28T09:50:17;1.55;;;0.75;;
64982;SDS011;73964;54.688;25.256;2023-12-28T09:52:43;1.20;;;0.73;;
64982;SDS011;73964;54.688;25.256;2023-12-28T09:55:08;1.93;;;0.80;;
64982;SDS011;73964;54.688;25.256;2023-12-28T09:57:33;1.33;;;0.80;;
64982;SDS011;73964;54.688;25.256;2023-12-28T09:59:59;1.58;;;0.85;;
64982;SDS011;73964;54.688;25.256;2023-12-28T10:02:24;1.40;;;0.82;;
64982;SDS011;73964;54.688;25.256;2023-12-28T10:04:50;1.73;;;0.70;;
64982;SDS011;73964;54.688;25.256;2023-12-28T10:07:15;1.10;;;0.60;;
64982;SDS011;73964;54.688;25.256;2023-12-28T10:09:40;1.20;;;0.80;;
64982;SDS011;73964;54.688;25.256;2023-12-28T10:12:05;1.83;;;0.70;;
64982;SDS011;73964;54.688;25.256;2023-12-28T10:14:31;3.70;;;0.80;;
64982;SDS011;73964;54.688;25.256;2023-12-28T10:16:56;1.15;;;0.70;;
64982;SDS011;73964;54.688;25.256;2023-12-28T10:19:22;1.42;;;0.80;;
64982;SDS011;73964;54.688;25.256;2023-12-28T10:21:48;1.52;;;0.75;;
64982;SDS011;73964;54.688;25.256;2023-12-28T10:24:13;1.67;;;0.70;;
64982;SDS011;73964;54.688;25.256;2023-12-28T10:26:38;1.60;;;0.80;;
64982;SDS011;73964;54.688;25.256;2023-12-28T10:29:04;1.37;;;0.80;;
64982;SDS011;73964;54.688;25.256;2023-12-28T10:31:30;1.98;;;0.80;;
64982;SDS011;73964;54.688;25.256;2023-12-28T10:33:59;5.57;;;0.75;;
64982;SDS011;73964;54.688;25.256;2023-12-28T10:36:27;1.92;;;0.82;;
64982;SDS011;73964;54.688;25.256;2023-12-28T10:38:53;4.28;;;1.17;;
64982;SDS011;73964;54.688;25.256;2023-12-28T10:41:18;4.95;;;1.48;;
64982;SDS011;73964;54.688;25.256;2023-12-28T10:43:57;3.55;;;1.92;;
64982;SDS011;73964;54.688;25.256;2023-12-28T10:46:27;4.68;;;1.70;;
64982;SDS011;73964;54.688;25.256;2023-12-28T10:48:57;4.55;;;1.90;;
64982;SDS011;73964;54.688;25.256;2023-12-28T10:51:23;4.82;;;1.73;;
64982;SDS011;73964;54.688;25.256;2023-12-28T10:56:41;3.95;;;1.75;;
64982;SDS011;73964;54.688;25.256;2023-12-28T11:01:51;5.95;;;1.90;;
64982;SDS011;73964;54.688;25.256;2023-12-28T11:06:42;4.53;;;1.43;;
64982;SDS011;73964;54.688;25.256;2023-12-28T11:09:09;5.82;;;1.70;;
64982;SDS011;73964;54.688;25.256;2023-12-28T11:11:35;4.63;;;1.38;;
64982;SDS011;73964;54.688;25.256;2023-12-28T11:14:00;5.38;;;1.30;;
64982;SDS011;73964;54.688;25.256;2023-12-28T11:16:27;5.28;;;1.60;;
64982;SDS011;73964;54.688;25.256;2023-12-28T11:18:53;2.95;;;1.40;;
64982;SDS011;73964;54.688;25.256;2023-12-28T11:21:19;5.70;;;1.40;;
64982;SDS011;73964;54.688;25.256;2023-12-28T11:23:45;4.10;;;1.38;;
64982;SDS011;73964;54.688;25.256;2023-12-28T11:26:15;2.65;;;1.30;;
64982;SDS011;73964;54.688;25.256;2023-12-28T11:28:40;2.38;;;1.23;;
64982;SDS011;73964;54.688;25.256;2023-12-28T11:31:09;3.75;;;1.20;;
64982;SDS011;73964;54.688;25.256;2023-12-28T11:33:42;5.03;;;1.20;;
64982;SDS011;73964;54.688;25.256;2023-12-28T11:36:08;3.85;;;1.30;;
64982;SDS011;73964;54.688;25.256;2023-12-28T11:38:34;3.47;;;1.15;;
64982;SDS011;73964;54.688;25.256;2023-12-28T11:40:59;2.05;;;1.00;;
64982;SDS011;73964;54.688;25.256;2023-12-28T11:43:28;2.53;;;1.30;;
64982;SDS011;73964;54.688;25.256;2023-12-28T11:45:58;2.05;;;1.00;;
64982;SDS011;73964;54.688;25.256;2023-12-28T11:48:24;1.95;;;1.10;;
64982;SDS011;73964;54.688;25.256;2023-12-28T11:50:50;1.80;;;1.10;;
64982;SDS011;73964;54.688;25.256;2023-12-28T11:53:16;2.90;;;1.20;;
64982;SDS011;73964;54.688;25.256;2023-12-28T11:55:42;2.47;;;1.00;;
64982;SDS011;73964;54.688;25.256;2023-12-28T11:58:07;1.87;;;1.13;;
64982;SDS011;73964;54.688;25.256;2023-12-28T12:00:32;2.80;;;1.10;;
64982;SDS011;73964;54.688;25.256;2023-12-28T12:02:57;3.73;;;1.20;;
64982;SDS011;73964;54.688;25.256;2023-12-28T12:05:23;3.40;;;1.10;;
64982;SDS011;73964;54.688;25.256;2023-12-28T12:07:51;4.05;;;1.20;;
64982;SDS011;73964;54.688;25.256;2023-12-28T12:10:16;3.00;;;1.10;;
64982;SDS011;73964;54.688;25.256;2023-12-28T12:12:42;3.55;;;1.00;;
64982;SDS011;73964;54.688;25.256;2023-12-28T12:15:07;4.10;;;1.02;;
64982;SDS011;73964;54.688;25.256;2023-12-28T12:17:33;3.00;;;1.10;;
64982;SDS011;73964;54.688;25.256;2023-12-28T12:19:58;3.27;;;1.30;;
64982;SDS011;73964;54.688;25.256;2023-12-28T12:22:23;2.37;;;0.90;;
64982;SDS011;73964;54.688;25.256;2023-12-28T12:24:49;3.87;;;1.23;;
64982;SDS011;73964;54.688;25.256;2023-12-28T12:27:16;3.58;;;1.20;;
64982;SDS011;73964;54.688;25.256;2023-12-28T12:29:42;2.45;;;1.02;;
64982;SDS011;73964;54.688;25.256;2023-12-28T12:32:07;2.53;;;1.00;;
64982;SDS011;73964;54.688;25.256;2023-12-28T12:34:32;4.18;;;0.93;;
64982;SDS011;73964;54.688;25.256;2023-12-28T12:36:58;2.20;;;1.10;;
64982;SDS011;73964;54.688;25.256;2023-12-28T12:39:24;2.22;;;1.00;;
64982;SDS011;73964;54.688;25.256;2023-12-28T12:41:49;5.35;;;1.38;;
64982;SDS011;73964;54.688;25.256;2023-12-28T12:44:14;3.00;;;1.30;;
64982;SDS011;73964;54.688;25.256;2023-12-28T12:46:42;2.53;;;1.25;;
64982;SDS011;73964;54.688;25.256;2023-12-28T12:49:07;3.55;;;1.50;;
64982;SDS011;73964;54.688;25.256;2023-12-28T12:51:32;4.60;;;1.52;;
64982;SDS011;73964;54.688;25.256;2023-12-28T12:53:58;5.63;;;1.50;;
64982;SDS011;73964;54.688;25.256;2023-12-28T12:56:25;2.85;;;1.33;;
64982;SDS011;73964;54.688;25.256;2023-12-28T12:58:50;4.97;;;1.50;;
64982;SDS011;73964;54.688;25.256;2023-12-28T13:01:15;5.33;;;1.60;;
64982;SDS011;73964;54.688;25.256;2023-12-28T13:03:41;6.17;;;1.73;;
64982;SDS011;73964;54.688;25.256;2023-12-28T13:06:06;3.93;;;1.47;;
64982;SDS011;73964;54.688;25.256;2023-12-28T13:08:32;3.60;;;1.75;;
64982;SDS011;73964;54.688;25.256;2023-12-28T13:10:58;2.83;;;1.67;;
64982;SDS011;73964;54.688;25.256;2023-12-28T13:13:23;5.57;;;1.87;;
64982;SDS011;73964;54.688;25.256;2023-12-28T13:15:48;3.97;;;1.57;;
64982;SDS011;73964;54.688;25.256;2023-12-28T13:18:13;3.80;;;1.67;;
64982;SDS011;73964;54.688;25.256;2023-12-28T13:20:39;4.05;;;1.90;;
64982;SDS011;73964;54.688;25.256;2023-12-28T13:23:05;3.47;;;1.48;;
64982;SDS011;73964;54.688;25.256;2023-12-28T13:25:30;4.80;;;1.50;;
64982;SDS011;73964;54.688;25.256;2023-12-28T13:27:56;2.60;;;1.20;;
64982;SDS011;73964;54.688;25.256;2023-12-28T13:30:21;4.10;;;1.57;;
64982;SDS011;73964;54.688;25.256;2023-12-28T13:32:47;4.03;;;1.52;;
64982;SDS011;73964;54.688;25.256;2023-12-28T13:35:12;2.80;;;1.40;;
64982;SDS011;73964;54.688;25.256;2023-12-28T13:37:37;9.27;;;3.03;;
64982;SDS011;73964;54.688;25.256;2023-12-28T13:40:03;7.73;;;2.37;;
64982;SDS011;73964;54.688;25.256;2023-12-28T13:42:28;7.93;;;2.38;;
64982;SDS011;73964;54.688;25.256;2023-12-28T13:44:53;6.47;;;2.07;;
64982;SDS011;73964;54.688;25.256;2023-12-28T13:47:18;5.37;;;2.00;;
64982;SDS011;73964;54.688;25.256;2023-12-28T13:49:44;4.00;;;1.67;;
64982;SDS011;73964;54.688;25.256;2023-12-28T13:52:09;5.63;;;1.60;;
64982;SDS011;73964;54.688;25.256;2023-12-28T13:54:34;4.53;;;1.67;;
64982;SDS011;73964;54.688;25.256;2023-12-28T13:56:59;7.97;;;1.97;;
64982;SDS011;73964;54.688;25.256;2023-12-28T13:59:25;3.90;;;1.48;;
64982;SDS011;73964;54.688;25.256;2023-12-28T14:01:50;3.90;;;1.60;;
64982;SDS011;73964;54.688;25.256;2023-12-28T14:04:16;3.10;;;1.40;;
64982;SDS011;73964;54.688;25.256;2023-12-28T14:06:41;6.23;;;1.57;;
64982;SDS011;73964;54.688;25.256;2023-12-28T14:09:06;3.50;;;1.40;;
64982;SDS011;73964;54.688;25.256;2023-12-28T14:11:33;5.07;;;1.48;;
64982;SDS011;73964;54.688;25.256;2023-12-28T14:13:58;4.47;;;1.40;;
64982;SDS011;73964;54.688;25.256;2023-12-28T14:16:23;4.23;;;1.50;;
64982;SDS011;73964;54.688;25.256;2023-12-28T14:18:49;2.67;;;1.30;;
64982;SDS011;73964;54.688;25.256;2023-12-28T14:21:14;3.07;;;1.47;;
64982;SDS011;73964;54.688;25.256;2023-12-28T14:23:40;4.72;;;1.60;;
64982;SDS011;73964;54.688;25.256;2023-12-28T14:26:09;8.68;;;1.70;;
64982;SDS011;73964;54.688;25.256;2023-12-28T14:28:36;4.57;;;1.83;;
64982;SDS011;73964;54.688;25.256;2023-12-28T14:31:01;3.88;;;1.40;;
64982;SDS011;73964;54.688;25.256;2023-12-28T14:33:27;4.82;;;1.70;;
64982;SDS011;73964;54.688;25.256;2023-12-28T14:35:52;3.30;;;1.45;;